createdAt,value
2019-03-16T00:04:01.655Z,4.00
2019-03-16T00:08:57.463Z,3.80
2019-03-16T00:13:53.181Z,3.80
2019-03-16T00:18:49.053Z,3.80
2019-03-16T00:23:44.851Z,3.80
2019-03-16T00:28:40.703Z,3.60
2019-03-16T00:33:36.382Z,3.60
2019-03-16T00:38:32.123Z,3.50
2019-03-16T00:43:27.859Z,3.50
2019-03-16T00:48:23.688Z,3.40
2019-03-16T00:53:19.675Z,3.30
2019-03-16T00:58:15.447Z,3.30
2019-03-16T01:03:14.245Z,3.30
2019-03-16T01:08:10.043Z,3.20
2019-03-16T01:13:07.048Z,3.20
2019-03-16T01:18:03.950Z,3.20
2019-03-16T01:23:00.799Z,3.30
2019-03-16T01:28:06.534Z,3.30
2019-03-16T01:33:02.966Z,3.40
2019-03-16T01:37:58.863Z,3.50
2019-03-16T01:42:54.608Z,3.70
2019-03-16T01:47:50.498Z,3.80
2019-03-16T01:52:46.275Z,4.20
2019-03-16T01:57:42.122Z,6.00
2019-03-16T02:02:37.877Z,9.10
2019-03-16T02:07:33.788Z,10.10
2019-03-16T02:12:29.487Z,10.40
2019-03-16T02:17:25.444Z,10.90
2019-03-16T02:22:21.199Z,11.10
2019-03-16T02:27:17.103Z,11.20
2019-03-16T02:32:12.889Z,11.20
2019-03-16T02:37:08.646Z,11.30
2019-03-16T02:42:04.845Z,11.40
2019-03-16T02:47:00.617Z,11.60
2019-03-16T02:51:58.607Z,11.60
2019-03-16T02:56:54.445Z,11.50
2019-03-16T03:01:50.220Z,11.60
2019-03-16T03:06:46.050Z,11.60
2019-03-16T03:11:41.730Z,11.60
2019-03-16T03:16:37.563Z,11.50
2019-03-16T03:21:33.252Z,11.50
2019-03-16T03:26:29.156Z,11.60
2019-03-16T03:31:24.893Z,11.60
2019-03-16T03:36:20.612Z,11.60
2019-03-16T03:41:16.351Z,11.70
2019-03-16T03:46:12.203Z,11.70
2019-03-16T03:51:08.025Z,11.70
2019-03-16T03:56:04.079Z,11.80
2019-03-16T04:00:59.809Z,12.00
2019-03-16T04:05:55.685Z,12.10
2019-03-16T04:10:51.427Z,12.10
2019-03-16T04:15:47.317Z,12.00
2019-03-16T04:20:43.180Z,12.00
2019-03-16T04:25:39.024Z,12.10
2019-03-16T04:30:34.836Z,12.20
2019-03-16T04:35:30.608Z,12.40
2019-03-16T04:40:26.240Z,12.30
2019-03-16T04:45:22.052Z,12.40
2019-03-16T04:50:17.821Z,12.70
2019-03-16T04:55:13.690Z,12.70
2019-03-16T05:00:09.809Z,12.70
2019-03-16T05:05:04.733Z,12.70
2019-03-16T05:09:58.698Z,12.70
2019-03-16T05:14:54.426Z,12.80
2019-03-16T05:19:50.101Z,12.80
2019-03-16T05:24:45.867Z,12.80
2019-03-16T05:29:41.715Z,12.60
2019-03-16T05:34:37.527Z,12.40
2019-03-16T05:39:33.401Z,11.80
2019-03-16T05:44:29.308Z,10.90
2019-03-16T05:49:27.848Z,10.10
2019-03-16T05:54:23.596Z,9.50
2019-03-16T05:59:19.324Z,9.40
2019-03-16T06:04:15.028Z,9.40
2019-03-16T06:09:11.422Z,9.60
2019-03-16T06:14:07.246Z,9.40
2019-03-16T06:19:04.208Z,9.20
2019-03-16T06:24:00.092Z,9.10
2019-03-16T06:28:57.198Z,9.00
2019-03-16T06:33:53.010Z,9.10
2019-03-16T06:38:49.022Z,9.10
2019-03-16T06:43:44.831Z,9.30
2019-03-16T06:48:41.456Z,9.50
2019-03-16T06:53:37.189Z,9.60
2019-03-16T06:58:33.091Z,9.90
2019-03-16T07:03:30.049Z,10.20
2019-03-16T07:08:25.923Z,10.40
2019-03-16T07:13:23.007Z,10.70
2019-03-16T07:18:18.938Z,10.80
2019-03-16T07:23:14.779Z,10.90
2019-03-16T07:28:10.649Z,11.20
2019-03-16T07:33:06.420Z,11.40
2019-03-16T07:38:02.301Z,11.60
2019-03-16T07:42:58.170Z,11.80
2019-03-16T07:47:53.956Z,11.90
2019-03-16T07:52:49.852Z,12.00
2019-03-16T07:57:45.684Z,12.10
2019-03-16T08:02:41.497Z,12.20
2019-03-16T08:07:37.325Z,12.20
2019-03-16T08:12:33.457Z,12.20
2019-03-16T08:17:29.223Z,12.20
2019-03-16T08:22:24.955Z,12.20
2019-03-16T08:27:20.768Z,12.30
2019-03-16T08:32:16.705Z,12.40
2019-03-16T08:37:12.639Z,12.50
2019-03-16T08:42:08.485Z,12.60
2019-03-16T08:47:04.437Z,12.60
2019-03-16T08:52:00.068Z,12.80
2019-03-16T08:56:56.616Z,12.90
2019-03-16T09:01:54.627Z,13.10
2019-03-16T09:06:52.831Z,13.30
2019-03-16T09:11:47.845Z,13.30
2019-03-16T09:16:43.629Z,13.10
2019-03-16T09:21:39.499Z,12.80
2019-03-16T09:26:36.996Z,12.40
2019-03-16T09:31:32.777Z,12.30
2019-03-16T09:36:28.939Z,12.30
2019-03-16T09:41:24.814Z,12.50
2019-03-16T09:46:20.677Z,12.50
2019-03-16T09:51:16.468Z,12.20
2019-03-16T09:56:12.361Z,12.00
2019-03-16T10:01:08.203Z,12.00
2019-03-16T10:06:04.301Z,12.10
2019-03-16T10:11:00.083Z,12.20
2019-03-16T10:15:55.876Z,12.20
2019-03-16T10:20:51.727Z,12.10
2019-03-16T10:25:47.584Z,12.00
2019-03-16T10:30:43.458Z,12.00
2019-03-16T10:35:39.182Z,12.10
2019-03-16T10:40:35.131Z,12.10
2019-03-16T10:45:34.293Z,12.00
2019-03-16T10:50:31.596Z,12.20
2019-03-16T10:55:27.489Z,12.60
2019-03-16T11:00:25.768Z,13.20
2019-03-16T11:05:21.522Z,13.90
2019-03-16T11:10:17.546Z,14.70
2019-03-16T11:15:13.690Z,15.60
2019-03-16T11:20:15.289Z,16.00
2019-03-16T11:25:23.816Z,16.40
2019-03-16T11:30:30.622Z,16.80
2019-03-16T11:35:27.291Z,17.30
2019-03-16T11:40:23.171Z,16.70
2019-03-16T11:45:19.054Z,16.70
2019-03-16T11:50:14.748Z,16.70
2019-03-16T11:55:12.731Z,16.70
2019-03-16T12:00:10.003Z,16.80
2019-03-16T12:05:07.061Z,16.60
2019-03-16T12:10:02.918Z,16.50
2019-03-16T12:14:59.811Z,16.20
2019-03-16T12:19:56.034Z,15.80
2019-03-16T12:24:52.015Z,15.50
2019-03-16T12:29:47.955Z,15.10
2019-03-16T12:34:43.865Z,15.10
2019-03-16T12:39:39.785Z,15.50
2019-03-16T12:44:36.848Z,15.70
2019-03-16T12:49:32.747Z,15.70
2019-03-16T12:54:28.561Z,15.90
2019-03-16T12:59:24.385Z,16.80
2019-03-16T13:04:20.517Z,16.90
2019-03-16T13:09:17.290Z,16.60
2019-03-16T13:14:13.188Z,16.70
2019-03-16T13:19:09.086Z,17.70
2019-03-16T13:24:19.216Z,18.50
2019-03-16T13:29:16.854Z,19.20
2019-03-16T13:34:12.741Z,19.60
2019-03-16T13:39:09.350Z,19.80
2019-03-16T13:44:05.238Z,19.90
2019-03-16T13:49:04.739Z,20.30
2019-03-16T13:54:05.239Z,20.50
2019-03-16T13:59:01.063Z,20.50
2019-03-16T14:03:56.820Z,20.90
2019-03-16T14:08:52.644Z,20.30
2019-03-16T14:13:48.512Z,19.60
2019-03-16T14:18:45.645Z,20.20
2019-03-16T14:23:41.394Z,21.20
2019-03-16T14:28:37.142Z,22.00
2019-03-16T14:33:32.874Z,22.90
2019-03-16T14:38:29.036Z,23.20
2019-03-16T14:43:24.833Z,20.80
2019-03-16T14:48:20.723Z,19.40
2019-03-16T14:53:17.372Z,18.20
2019-03-16T14:58:13.182Z,17.60
2019-03-16T15:03:09.808Z,17.30
2019-03-16T15:08:05.689Z,17.00
2019-03-16T15:13:01.758Z,16.70
2019-03-16T15:17:58.550Z,16.60
2019-03-16T15:22:54.306Z,16.40
2019-03-16T15:27:50.069Z,16.40
2019-03-16T15:32:45.874Z,16.40
2019-03-16T15:37:41.670Z,16.30
2019-03-16T15:42:37.419Z,17.40
2019-03-16T15:47:33.124Z,20.20
2019-03-16T15:52:28.930Z,22.20
2019-03-16T15:57:24.857Z,22.90
2019-03-16T16:02:21.712Z,22.40
2019-03-16T16:07:18.978Z,22.20
2019-03-16T16:12:14.812Z,19.90
2019-03-16T16:17:10.714Z,17.90
2019-03-16T16:22:06.496Z,16.60
2019-03-16T16:27:03.781Z,15.80
2019-03-16T16:31:59.695Z,15.30
2019-03-16T16:36:55.466Z,15.00
2019-03-16T16:41:51.221Z,14.70
2019-03-16T16:46:49.467Z,14.40
2019-03-16T16:51:45.338Z,14.10
2019-03-16T16:56:41.192Z,13.90
2019-03-16T17:01:36.983Z,13.70
2019-03-16T17:06:32.715Z,13.40
2019-03-16T17:11:29.836Z,13.10
2019-03-16T17:16:25.682Z,12.80
2019-03-16T17:21:23.304Z,12.70
2019-03-16T17:26:19.176Z,12.60
2019-03-16T17:31:15.466Z,12.50
2019-03-16T17:36:12.401Z,12.30
2019-03-16T17:41:10.879Z,12.10
2019-03-16T17:46:07.998Z,11.80
2019-03-16T17:51:03.751Z,11.60
2019-03-16T17:56:00.818Z,11.40
2019-03-16T18:00:56.625Z,11.30
2019-03-16T18:05:55.057Z,11.20
2019-03-16T18:10:50.829Z,11.00
2019-03-16T18:15:46.679Z,10.90
2019-03-16T18:20:43.425Z,10.80
2019-03-16T18:25:39.178Z,10.70
2019-03-16T18:30:35.177Z,10.60
2019-03-16T18:35:30.942Z,10.40
2019-03-16T18:40:26.704Z,10.10
2019-03-16T18:45:23.555Z,10.00
2019-03-16T18:50:19.306Z,9.90
2019-03-16T18:55:16.286Z,9.90
2019-03-16T19:00:13.492Z,9.80
2019-03-16T19:05:09.726Z,9.70
2019-03-16T19:10:06.015Z,9.60
2019-03-16T19:15:01.882Z,9.40
2019-03-16T19:19:57.609Z,9.30
2019-03-16T19:24:53.472Z,9.20
2019-03-16T19:29:49.244Z,9.10
2019-03-16T19:34:46.016Z,9.00
2019-03-16T19:39:44.783Z,9.00
2019-03-16T19:44:40.514Z,8.90
2019-03-16T19:49:36.349Z,8.70
2019-03-16T19:54:35.237Z,8.50
2019-03-16T19:59:31.014Z,8.30
2019-03-16T20:04:35.906Z,8.20
2019-03-16T20:09:30.173Z,8.20
2019-03-16T20:14:26.398Z,8.20
2019-03-16T20:19:22.215Z,8.10
2019-03-16T20:24:18.018Z,8.00
2019-03-16T20:29:14.358Z,7.80
2019-03-16T20:34:10.132Z,7.70
2019-03-16T20:39:08.174Z,7.60
2019-03-16T20:44:04.155Z,7.60
2019-03-16T20:49:00.162Z,7.60
2019-03-16T20:53:55.804Z,7.60
2019-03-16T20:58:51.540Z,7.50
2019-03-16T21:03:47.693Z,7.40
2019-03-16T21:08:45.006Z,7.30
2019-03-16T21:13:40.804Z,7.10
2019-03-16T21:18:38.337Z,7.00
2019-03-16T21:23:35.300Z,6.90
2019-03-16T21:28:34.882Z,7.00
2019-03-16T21:33:32.357Z,6.90
2019-03-16T21:38:29.170Z,6.80
2019-03-16T21:43:25.052Z,6.70
2019-03-16T21:48:20.839Z,6.70
2019-03-16T21:53:16.509Z,6.70
2019-03-16T21:58:12.304Z,6.70
2019-03-16T22:03:08.063Z,6.60
2019-03-16T22:08:04.653Z,6.50
2019-03-16T22:13:00.524Z,6.50
2019-03-16T22:17:56.528Z,6.40
2019-03-16T22:22:52.353Z,6.30
2019-03-16T22:27:51.605Z,6.30
2019-03-16T22:32:46.529Z,6.20
2019-03-16T22:37:44.118Z,6.10
2019-03-16T22:42:39.940Z,6.10
2019-03-16T22:47:35.774Z,6.10
2019-03-16T22:52:31.855Z,6.00
2019-03-16T22:57:27.731Z,5.90
2019-03-16T23:02:23.593Z,5.80
2019-03-16T23:07:23.303Z,5.60
2019-03-16T23:12:21.431Z,5.40
2019-03-16T23:17:17.115Z,5.40
2019-03-16T23:22:12.973Z,5.40
2019-03-16T23:27:08.750Z,5.30
2019-03-16T23:32:04.558Z,5.30
2019-03-16T23:37:00.434Z,5.20
2019-03-16T23:41:56.153Z,5.20
2019-03-16T23:46:52.060Z,5.10
2019-03-16T23:51:47.826Z,4.90
2019-03-16T23:56:43.607Z,4.90
